createdAt,value
2019-05-07T04:31:03.848Z,96792.58
2019-05-07T04:33:34.351Z,96791.56
2019-05-07T04:36:08.085Z,96801.23
2019-05-07T04:38:33.900Z,96797.44
2019-05-07T04:40:59.670Z,96798.02
2019-05-07T04:43:25.774Z,96796.11
2019-05-07T04:45:53.701Z,96797.35
2019-05-07T04:48:19.838Z,96791.26
2019-05-07T04:50:48.123Z,96790.52
2019-05-07T04:53:14.117Z,96794.80
2019-05-07T04:55:42.831Z,96783.73
2019-05-07T04:58:08.962Z,96783.73
2019-05-07T05:00:35.165Z,96785.47
2019-05-07T05:03:08.435Z,96788.52
2019-05-07T05:05:34.467Z,96790.36
2019-05-07T05:08:00.307Z,96780.48
2019-05-07T05:10:26.121Z,96785.64
2019-05-07T05:12:53.644Z,96792.50
2019-05-07T05:15:19.615Z,96791.52
2019-05-07T05:17:49.961Z,96789.41
2019-05-07T05:20:14.663Z,96795.81
2019-05-07T05:22:59.711Z,96792.25
2019-05-07T05:25:27.408Z,96790.14
2019-05-07T05:27:53.217Z,96792.25
2019-05-07T05:30:23.905Z,96791.52
2019-05-07T05:32:51.858Z,96787.66
2019-05-07T05:35:17.405Z,96787.26
2019-05-07T05:37:43.233Z,96789.21
2019-05-07T05:40:12.221Z,96786.61
2019-05-07T05:42:55.906Z,96794.14
2019-05-07T05:45:36.027Z,96794.17
2019-05-07T05:48:07.897Z,96795.95
2019-05-07T05:50:33.083Z,96810.33
2019-05-07T05:53:06.797Z,96796.88
2019-05-07T05:55:32.778Z,96800.03
2019-05-07T05:58:02.699Z,96798.17
2019-05-07T06:00:47.026Z,96795.67
2019-05-07T06:03:14.745Z,96796.72
2019-05-07T06:05:48.029Z,96789.52
2019-05-07T06:08:17.641Z,96786.75
2019-05-07T06:10:57.741Z,96789.12
2019-05-07T06:13:28.219Z,96787.34
2019-05-07T06:16:03.088Z,96789.23
2019-05-07T06:18:48.983Z,96788.86
2019-05-07T06:21:19.563Z,96787.13
2019-05-07T06:23:47.268Z,96782.20
2019-05-07T06:26:13.074Z,96787.91
2019-05-07T06:28:38.886Z,96786.58
2019-05-07T06:31:04.979Z,96789.80
2019-05-07T06:33:32.445Z,96720.77
2019-05-07T06:35:58.321Z,96792.77
2019-05-07T06:38:26.132Z,96792.73
2019-05-07T06:41:09.451Z,96790.13
2019-05-07T06:43:37.421Z,96796.17
2019-05-07T06:46:04.514Z,96795.62
2019-05-07T06:48:40.893Z,96796.51
2019-05-07T06:50:58.868Z,96792.16
2019-05-07T06:53:25.779Z,96791.55
2019-05-07T06:55:52.029Z,96790.31
2019-05-07T06:58:17.926Z,96791.80
2019-05-07T07:00:45.891Z,96796.09
2019-05-07T07:03:13.615Z,96791.95
2019-05-07T07:05:42.566Z,96798.05
2019-05-07T07:08:23.026Z,96799.12
2019-05-07T07:11:06.188Z,96791.83
2019-05-07T07:13:32.348Z,96792.75
2019-05-07T07:15:58.477Z,96793.07
2019-05-07T07:18:24.286Z,96790.16
2019-05-07T07:20:52.322Z,96793.17
2019-05-07T07:23:18.165Z,96787.68
2019-05-07T07:25:43.947Z,96781.38
2019-05-07T07:28:12.105Z,96784.09
2019-05-07T07:30:41.953Z,96782.20
2019-05-07T07:33:09.555Z,96775.92
2019-05-07T07:35:35.359Z,96777.81
2019-05-07T07:38:03.161Z,96772.59
2019-05-07T07:40:33.994Z,96772.02
2019-05-07T07:43:00.060Z,96764.91
2019-05-07T07:45:25.862Z,96766.94
2019-05-07T07:47:53.076Z,96766.48
2019-05-07T07:50:18.967Z,96768.09
2019-05-07T07:52:44.774Z,96770.50
2019-05-07T07:55:12.719Z,96763.58
2019-05-07T07:57:42.686Z,96765.03
2019-05-07T08:00:11.908Z,96762.91
2019-05-07T08:02:42.389Z,96756.59
2019-05-07T08:05:08.706Z,96755.40
2019-05-07T08:07:36.489Z,96759.96
2019-05-07T08:10:04.410Z,96756.49
2019-05-07T08:12:33.280Z,96751.39
2019-05-07T08:15:14.718Z,96775.53
2019-05-07T08:17:27.167Z,96747.28
2019-05-07T08:19:52.957Z,96758.64
2019-05-07T08:22:22.701Z,96746.58
2019-05-07T08:24:48.709Z,96755.05
2019-05-07T08:27:17.263Z,96749.43
2019-05-07T08:29:43.204Z,96768.62
2019-05-07T08:32:22.099Z,96745.44
2019-05-07T08:34:49.518Z,96769.63
2019-05-07T08:37:15.329Z,96734.55
2019-05-07T08:39:42.893Z,96738.02
2019-05-07T08:42:09.042Z,96729.17
2019-05-07T08:44:43.090Z,96729.19
2019-05-07T08:47:19.914Z,96727.34
2019-05-07T08:49:45.717Z,96731.39
2019-05-07T08:52:11.968Z,96728.41
2019-05-07T08:54:38.030Z,96720.59
2019-05-07T08:57:04.073Z,96721.52
2019-05-07T08:59:31.912Z,96722.27
2019-05-07T09:01:58.741Z,96724.77
2019-05-07T09:04:24.510Z,96713.72
2019-05-07T09:06:51.978Z,96709.41
2019-05-07T09:09:17.799Z,96704.20
2019-05-07T09:11:43.703Z,96699.27
2019-05-07T09:14:12.604Z,96695.58
2019-05-07T09:16:38.262Z,96694.68
2019-05-07T09:19:04.444Z,96698.69
2019-05-07T09:21:32.215Z,96695.44
2019-05-07T09:23:58.445Z,96694.84
2019-05-07T09:26:26.236Z,96699.03
2019-05-07T09:28:54.177Z,96691.66
2019-05-07T09:31:34.253Z,96690.11
2019-05-07T09:34:02.530Z,96688.58
2019-05-07T09:36:32.212Z,96680.09
2019-05-07T09:38:59.288Z,96680.72
2019-05-07T09:41:28.107Z,96685.48
2019-05-07T09:43:55.202Z,96687.23
2019-05-07T09:46:22.685Z,96682.12
2019-05-07T09:48:48.536Z,96676.45
2019-05-07T09:51:14.614Z,96683.55
2019-05-07T09:53:42.487Z,96676.86
2019-05-07T09:56:08.300Z,96680.06
2019-05-07T09:58:38.490Z,96679.28
2019-05-07T10:01:02.157Z,96676.59
2019-05-07T10:03:28.125Z,96673.62
2019-05-07T10:05:54.147Z,96674.05
2019-05-07T10:08:20.210Z,96671.56
2019-05-07T10:10:50.282Z,96669.66
2019-05-07T10:13:17.425Z,96672.23
2019-05-07T10:15:43.201Z,96668.30
2019-05-07T10:18:12.360Z,96669.19
2019-05-07T10:20:38.771Z,96667.22
2019-05-07T10:23:04.662Z,96666.27
2019-05-07T10:25:39.867Z,96668.53
2019-05-07T10:28:06.169Z,96664.01
2019-05-07T10:30:32.563Z,96657.51
2019-05-07T10:32:58.893Z,96659.66
2019-05-07T10:35:24.794Z,96656.59
2019-05-07T10:37:52.591Z,96657.14
2019-05-07T10:40:19.122Z,96649.07
2019-05-07T10:42:44.998Z,96647.53
2019-05-07T10:45:22.474Z,96643.66
2019-05-07T10:48:14.540Z,96644.90
2019-05-07T10:50:48.191Z,96641.33
2019-05-07T10:53:14.176Z,96641.52
2019-05-07T10:55:42.223Z,96623.34
2019-05-07T10:58:08.038Z,96618.29
2019-05-07T11:00:33.918Z,96615.13
2019-05-07T11:03:02.153Z,96613.53
2019-05-07T11:05:27.525Z,96618.41
2019-05-07T11:07:53.985Z,96615.59
2019-05-07T11:10:21.922Z,96614.97
2019-05-07T11:12:48.131Z,96611.07
2019-05-07T11:15:14.594Z,96610.95
2019-05-07T11:17:42.279Z,96607.70
2019-05-07T11:20:08.310Z,96601.92
2019-05-07T11:22:35.000Z,96595.80
2019-05-07T11:25:03.032Z,96591.76
2019-05-07T11:27:28.948Z,96584.52
2019-05-07T11:29:54.719Z,96581.17
2019-05-07T11:32:21.626Z,96578.69
2019-05-07T11:34:47.531Z,96566.66
2019-05-07T11:37:13.332Z,96568.75
2019-05-07T11:39:42.733Z,96569.72
2019-05-07T11:42:21.881Z,96596.06
2019-05-07T11:44:47.900Z,96573.69
2019-05-07T11:47:18.368Z,96571.08
2019-05-07T11:50:03.299Z,96567.37
2019-05-07T11:52:35.189Z,96556.72
2019-05-07T11:54:59.367Z,96550.83
2019-05-07T11:57:25.187Z,96543.64
2019-05-07T11:59:51.650Z,96536.23
2019-05-07T12:02:18.960Z,96531.86
2019-05-07T12:04:44.741Z,96541.55
2019-05-07T12:07:11.873Z,96533.14
2019-05-07T12:09:38.144Z,96525.06
2019-05-07T12:12:03.960Z,96516.06
2019-05-07T12:14:34.259Z,96520.84
2019-05-07T12:16:57.570Z,96525.56
2019-05-07T12:19:23.346Z,96524.80
2019-05-07T12:21:49.125Z,96520.02
2019-05-07T12:24:16.504Z,96547.81
2019-05-07T12:26:43.545Z,96514.77
2019-05-07T12:29:11.648Z,96518.35
2019-05-07T12:31:38.946Z,96503.25
2019-05-07T12:34:12.912Z,96503.59
2019-05-07T12:36:38.795Z,96503.59
2019-05-07T12:39:06.547Z,96501.93
2019-05-07T12:41:33.657Z,96504.89
2019-05-07T12:44:02.959Z,96498.04
2019-05-07T12:46:29.270Z,96495.56
2019-05-07T12:48:55.159Z,96494.55
2019-05-07T12:51:33.532Z,96485.14
2019-05-07T12:54:09.264Z,96485.27
2019-05-07T12:56:35.074Z,96487.05
2019-05-07T12:59:02.207Z,96486.13
2019-05-07T13:01:32.970Z,96493.03
2019-05-07T13:04:17.245Z,96492.05
2019-05-07T13:06:52.369Z,96489.37
2019-05-07T13:09:18.520Z,96497.55
2019-05-07T13:11:44.333Z,96484.02
2019-05-07T13:14:12.446Z,96479.87
2019-05-07T13:16:38.092Z,96476.99
2019-05-07T13:19:03.881Z,96473.47
2019-05-07T13:21:31.776Z,96470.64
2019-05-07T13:23:57.389Z,96462.06
2019-05-07T13:26:24.528Z,96462.06
2019-05-07T13:28:52.964Z,96451.94
2019-05-07T13:31:18.821Z,96451.59
2019-05-07T13:33:45.049Z,96451.59
2019-05-07T13:36:12.330Z,96447.06
2019-05-07T13:38:51.757Z,96450.46
2019-05-07T13:41:19.162Z,96444.69
2019-05-07T13:44:04.673Z,96443.83
2019-05-07T13:46:32.372Z,96440.61
2019-05-07T13:48:58.376Z,96440.61
2019-05-07T13:51:24.626Z,96433.36
2019-05-07T13:53:50.514Z,96433.36
2019-05-07T13:56:16.715Z,96437.42
2019-05-07T13:58:42.927Z,96425.75
2019-05-07T14:01:13.624Z,96410.45
2019-05-07T14:03:39.543Z,96410.81
2019-05-07T14:06:05.617Z,96410.81
2019-05-07T14:08:33.366Z,96414.16
2019-05-07T14:10:59.503Z,96398.47
2019-05-07T14:13:25.297Z,96436.72
2019-05-07T14:16:08.400Z,96406.02
2019-05-07T14:18:38.201Z,96400.11
2019-05-07T14:21:04.916Z,96396.26
2019-05-07T14:23:32.506Z,96396.26
2019-05-07T14:25:58.394Z,96385.09
2019-05-07T14:28:24.188Z,96396.28
2019-05-07T14:30:49.961Z,96391.03
2019-05-07T14:33:38.121Z,96387.11
2019-05-07T14:36:08.596Z,96382.19
2019-05-07T14:38:36.316Z,96390.23
2019-05-07T14:41:02.696Z,96381.02
2019-05-07T14:43:32.426Z,96377.03
2019-05-07T14:45:58.644Z,96370.19
2019-05-07T14:48:24.455Z,96377.80
2019-05-07T14:50:50.344Z,96379.38
2019-05-07T14:53:16.216Z,96375.52
2019-05-07T14:55:42.122Z,96370.48
2019-05-07T14:58:08.291Z,96369.87
2019-05-07T15:00:35.303Z,96360.48
2019-05-07T15:03:01.965Z,96360.69
2019-05-07T15:05:27.942Z,96361.46
2019-05-07T15:08:06.625Z,96358.17
2019-05-07T15:10:22.621Z,96355.12
2019-05-07T15:12:48.703Z,96348.59
2019-05-07T15:15:17.867Z,96345.52
2019-05-07T15:17:52.493Z,96337.72
2019-05-07T15:20:18.289Z,96332.77
2019-05-07T15:23:02.689Z,96332.41
2019-05-07T15:25:29.009Z,96330.91
2019-05-07T15:27:55.214Z,96325.81
2019-05-07T15:30:22.112Z,96335.06
2019-05-07T15:32:47.924Z,96325.49
2019-05-07T15:35:13.817Z,96330.78
2019-05-07T15:37:39.608Z,96323.02
2019-05-07T15:40:06.818Z,96319.36
2019-05-07T15:42:32.873Z,96320.52
2019-05-07T15:44:59.032Z,96320.88
2019-05-07T15:47:27.000Z,96320.65
2019-05-07T15:49:52.795Z,96318.53
2019-05-07T15:52:22.143Z,96317.51
2019-05-07T15:54:48.112Z,96318.59
2019-05-07T15:57:16.051Z,96311.27
2019-05-07T15:59:41.963Z,96316.38
2019-05-07T16:02:22.618Z,96314.83
2019-05-07T16:04:48.778Z,96320.18
2019-05-07T16:07:14.617Z,96315.84
2019-05-07T16:09:43.272Z,96312.36
2019-05-07T16:12:09.064Z,96307.59
2019-05-07T16:14:34.897Z,96306.78
2019-05-07T16:17:02.845Z,96301.52
2019-05-07T16:19:29.431Z,96303.95
2019-05-07T16:21:56.918Z,96305.48
2019-05-07T16:24:22.745Z,96304.72
2019-05-07T16:26:48.531Z,96302.16
2019-05-07T16:29:14.623Z,96301.55
2019-05-07T16:31:40.715Z,96290.06
2019-05-07T16:34:06.763Z,96284.86
2019-05-07T16:36:32.997Z,96281.25
2019-05-07T16:38:58.878Z,96279.06
2019-05-07T16:41:24.649Z,96281.08
2019-05-07T16:43:52.285Z,96273.05
2019-05-07T16:46:18.162Z,96273.05
2019-05-07T16:48:44.362Z,96269.11
2019-05-07T16:51:12.658Z,96270.36
2019-05-07T16:53:38.141Z,96260.42
2019-05-07T16:56:04.234Z,96263.36
2019-05-07T16:58:35.212Z,96247.10
2019-05-07T17:01:02.905Z,96247.10
2019-05-07T17:03:31.903Z,96249.31
2019-05-07T17:05:57.769Z,96251.39
2019-05-07T17:08:25.449Z,96251.39
2019-05-07T17:10:52.373Z,96250.27
2019-05-07T17:13:18.215Z,96250.27
2019-05-07T17:15:54.626Z,96256.30
2019-05-07T17:18:22.153Z,96241.97
2019-05-07T17:20:48.064Z,96245.61
2019-05-07T17:23:13.845Z,96245.61
2019-05-07T17:25:39.683Z,96246.70
2019-05-07T17:28:06.749Z,96226.52
2019-05-07T17:30:32.750Z,96248.69
2019-05-07T17:32:58.580Z,96244.28
2019-05-07T17:35:24.373Z,96238.56
2019-05-07T17:37:51.833Z,96236.61
2019-05-07T17:40:17.747Z,96238.18
2019-05-07T17:42:43.803Z,96239.66
2019-05-07T17:45:09.695Z,96175.97
2019-05-07T17:47:35.486Z,96239.05
2019-05-07T17:50:02.478Z,96237.13
2019-05-07T17:52:28.255Z,96242.13
2019-05-07T17:54:54.057Z,96255.34
2019-05-07T17:57:19.956Z,96245.66
2019-05-07T17:59:46.041Z,96244.47
2019-05-07T18:02:19.496Z,96241.26
2019-05-07T18:04:50.839Z,96244.80
2019-05-07T18:07:13.687Z,96241.95
2019-05-07T18:09:39.494Z,96238.48
2019-05-07T18:12:05.403Z,96236.77
2019-05-07T18:14:32.137Z,96235.84
2019-05-07T18:17:02.005Z,96235.63
2019-05-07T18:19:29.613Z,96237.50
2019-05-07T18:21:55.403Z,96232.59
2019-05-07T18:24:22.381Z,96231.17
2019-05-07T18:26:48.521Z,96227.28
2019-05-07T18:29:14.588Z,96223.44
2019-05-07T18:31:42.274Z,96218.00
2019-05-07T18:34:08.327Z,96220.01
2019-05-07T18:36:34.143Z,96222.51
2019-05-07T18:39:01.663Z,96224.34
2019-05-07T18:41:27.843Z,96229.63
2019-05-07T18:43:54.728Z,96227.14
2019-05-07T18:46:22.108Z,96237.19
2019-05-07T18:48:48.367Z,96225.55
2019-05-07T18:51:14.461Z,96223.88
2019-05-07T18:53:42.328Z,96233.18
2019-05-07T18:56:07.952Z,96243.38
2019-05-07T18:58:33.741Z,96240.66
2019-05-07T19:01:02.668Z,96248.39
2019-05-07T19:03:28.865Z,96250.64
2019-05-07T19:05:54.702Z,96247.54
2019-05-07T19:08:22.755Z,96249.55
2019-05-07T19:10:48.292Z,96245.28
2019-05-07T19:13:14.125Z,96250.83
2019-05-07T19:15:41.984Z,96253.09
2019-05-07T19:18:08.071Z,96252.09
2019-05-07T19:20:33.869Z,96251.03
2019-05-07T19:22:59.684Z,96252.59
2019-05-07T19:25:25.487Z,96254.34
2019-05-07T19:27:52.617Z,96248.03
2019-05-07T19:30:18.850Z,96253.34
2019-05-07T19:32:44.647Z,96242.55
2019-05-07T19:35:12.400Z,96246.95
2019-05-07T19:37:38.299Z,96242.80
2019-05-07T19:40:05.215Z,96247.16
2019-05-07T19:42:31.837Z,96249.66
2019-05-07T19:44:57.827Z,96177.70
2019-05-07T19:47:23.614Z,96248.02
2019-05-07T19:49:49.831Z,96247.25
2019-05-07T19:52:15.659Z,96243.34
2019-05-07T19:54:43.108Z,96243.91
2019-05-07T19:57:11.838Z,96245.98
2019-05-07T19:59:37.723Z,96246.16
2019-05-07T20:02:05.487Z,96246.42
2019-05-07T20:04:32.101Z,96237.73
2019-05-07T20:06:58.539Z,96246.80
2019-05-07T20:09:26.374Z,96243.17
2019-05-07T20:11:52.535Z,96245.47
2019-05-07T20:14:18.645Z,96239.58
2019-05-07T20:16:44.470Z,96237.89
2019-05-07T20:19:12.067Z,96228.94
2019-05-07T20:21:38.026Z,96224.64
2019-05-07T20:24:03.912Z,96226.30
2019-05-07T20:26:32.082Z,96228.80
2019-05-07T20:28:57.443Z,96225.94
2019-05-07T20:31:23.240Z,96219.38
2019-05-07T20:33:49.030Z,96221.00
2019-05-07T20:36:17.593Z,96223.14
2019-05-07T20:38:43.371Z,96245.83
2019-05-07T20:41:12.925Z,96224.50
2019-05-07T20:43:39.682Z,96224.66
2019-05-07T20:46:05.472Z,96206.48
2019-05-07T20:48:32.456Z,96207.27
2019-05-07T20:51:01.589Z,96194.48
2019-05-07T20:53:46.005Z,96194.53
2019-05-07T20:56:12.922Z,96189.59
2019-05-07T20:58:39.009Z,96188.89
2019-05-07T21:01:04.930Z,96188.27
2019-05-07T21:03:32.467Z,96185.88
2019-05-07T21:05:58.379Z,96187.63
2019-05-07T21:08:24.234Z,96188.92
2019-05-07T21:10:50.041Z,96187.76
2019-05-07T21:13:27.642Z,96184.94
2019-05-07T21:15:43.842Z,96177.50
2019-05-07T21:18:12.126Z,96174.77
2019-05-07T21:20:37.470Z,96167.46
2019-05-07T21:23:03.501Z,96159.61
2019-05-07T21:25:42.277Z,96152.39
2019-05-07T21:27:57.072Z,96146.25
2019-05-07T21:30:22.843Z,96152.08
2019-05-07T21:32:48.650Z,96152.23
2019-05-07T21:35:14.691Z,96149.12
2019-05-07T21:37:41.811Z,96141.73
2019-05-07T21:40:08.119Z,96139.72
2019-05-07T21:42:34.161Z,96134.73
2019-05-07T21:45:02.076Z,96132.98
2019-05-07T21:47:27.749Z,96133.29
2019-05-07T21:49:55.304Z,96135.50
2019-05-07T21:52:22.169Z,96130.48
2019-05-07T21:54:52.388Z,96118.06
2019-05-07T21:57:22.541Z,96119.23
2019-05-07T21:59:48.395Z,96124.55
2019-05-07T22:02:18.888Z,96125.86
2019-05-07T22:04:44.869Z,96129.22
2019-05-07T22:07:12.220Z,96130.95
2019-05-07T22:09:38.278Z,96128.02
2019-05-07T22:12:04.083Z,96121.50
2019-05-07T22:14:29.892Z,96114.82
2019-05-07T22:16:55.962Z,96111.77
2019-05-07T22:19:21.741Z,96104.92
2019-05-07T22:21:47.543Z,96104.31
2019-05-07T22:24:15.196Z,96101.72
2019-05-07T22:26:42.071Z,96106.55
2019-05-07T22:29:07.954Z,96097.13
2019-05-07T22:31:35.660Z,96089.58
2019-05-07T22:34:03.459Z,96093.86
2019-05-07T22:36:29.263Z,96083.63
2019-05-07T22:38:55.316Z,96071.38
2019-05-07T22:41:22.409Z,96078.80
2019-05-07T22:43:48.567Z,96090.39
2019-05-07T22:46:14.378Z,96084.50
2019-05-07T22:48:41.903Z,96070.95
2019-05-07T22:51:08.021Z,96071.98
2019-05-07T22:53:33.836Z,96067.05
2019-05-07T22:55:59.654Z,96060.50
2019-05-07T22:58:32.919Z,96061.41
2019-05-07T23:01:13.156Z,96058.72
2019-05-07T23:03:38.965Z,96053.68
2019-05-07T23:06:07.812Z,96048.67
2019-05-07T23:08:35.205Z,96050.20
2019-05-07T23:11:02.812Z,96044.08
2019-05-07T23:13:28.712Z,96042.48
2019-05-07T23:15:54.530Z,96045.86
2019-05-07T23:18:22.594Z,96039.19
2019-05-07T23:20:48.305Z,96041.52
2019-05-07T23:23:14.326Z,96037.68
2019-05-07T23:25:40.191Z,96034.42
2019-05-07T23:28:06.239Z,96031.95
2019-05-07T23:30:33.064Z,96026.94
2019-05-07T23:32:59.288Z,96036.31
2019-05-07T23:35:25.107Z,96030.23
2019-05-07T23:37:52.983Z,96037.81
2019-05-07T23:40:29.719Z,96037.31
2019-05-07T23:43:03.518Z,96031.78
2019-05-07T23:45:29.280Z,96025.68
2019-05-07T23:47:55.081Z,96028.56
2019-05-07T23:50:20.852Z,96022.58
2019-05-07T23:52:46.941Z,96025.70
2019-05-07T23:55:12.995Z,96020.35
2019-05-07T23:57:38.787Z,96017.53
